sensor_id;sensor_type;location;lat;lon;timestamp;pressure;altitude;pressure_sealevel;temperature;humidity
36788;BME280;22738;45.560;9.434;2023-08-21T00:03:50;100326.31;;;27.17;100.00
36788;BME280;22738;45.560;9.434;2023-08-21T00:10:31;100330.34;;;27.13;100.00
36788;BME280;22738;45.560;9.434;2023-08-21T00:17:13;100324.13;;;27.06;100.00
36788;BME280;22738;45.560;9.434;2023-08-21T00:23:54;100317.31;;;26.97;100.00
36788;BME280;22738;45.560;9.434;2023-08-21T00:30:35;100326.94;;;26.98;100.00
36788;BME280;22738;45.560;9.434;2023-08-21T00:37:16;100326.44;;;26.87;100.00
36788;BME280;22738;45.560;9.434;2023-08-21T00:43:57;100325.63;;;26.87;100.00
36788;BME280;22738;45.560;9.434;2023-08-21T00:50:39;100323.13;;;26.85;100.00
36788;BME280;22738;45.560;9.434;2023-08-21T00:57:22;100331.53;;;26.82;100.00
36788;BME280;22738;45.560;9.434;2023-08-21T01:04:04;100334.47;;;26.73;100.00
36788;BME280;22738;45.560;9.434;2023-08-21T01:11:03;100328.88;;;26.68;100.00
36788;BME280;22738;45.560;9.434;2023-08-21T01:17:46;100324.50;;;26.60;100.00
36788;BME280;22738;45.560;9.434;2023-08-21T01:24:28;100330.22;;;26.57;100.00
36788;BME280;22738;45.560;9.434;2023-08-21T01:31:11;100321.66;;;26.62;100.00
36788;BME280;22738;45.560;9.434;2023-08-21T01:37:55;100325.06;;;26.56;100.00
36788;BME280;22738;45.560;9.434;2023-08-21T01:44:36;100328.28;;;26.51;100.00
36788;BME280;22738;45.560;9.434;2023-08-21T01:51:17;100336.19;;;26.45;100.00
36788;BME280;22738;45.560;9.434;2023-08-21T01:57:58;100333.75;;;26.43;100.00
36788;BME280;22738;45.560;9.434;2023-08-21T02:04:39;100336.03;;;26.46;100.00
36788;BME280;22738;45.560;9.434;2023-08-21T02:11:20;100330.59;;;26.40;100.00
36788;BME280;22738;45.560;9.434;2023-08-21T02:18:01;100327.44;;;26.30;100.00
36788;BME280;22738;45.560;9.434;2023-08-21T02:24:42;100332.28;;;26.26;100.00
36788;BME280;22738;45.560;9.434;2023-08-21T02:31:23;100325.78;;;26.29;100.00
36788;BME280;22738;45.560;9.434;2023-08-21T02:38:06;100331.50;;;26.26;100.00
36788;BME280;22738;45.560;9.434;2023-08-21T02:44:50;100333.03;;;26.20;100.00
36788;BME280;22738;45.560;9.434;2023-08-21T02:51:31;100327.66;;;26.13;100.00
36788;BME280;22738;45.560;9.434;2023-08-21T02:58:11;100327.28;;;26.16;100.00
36788;BME280;22738;45.560;9.434;2023-08-21T03:04:53;100324.25;;;26.05;100.00
36788;BME280;22738;45.560;9.434;2023-08-21T03:11:34;100319.94;;;26.04;100.00
36788;BME280;22738;45.560;9.434;2023-08-21T03:18:15;100317.47;;;25.88;100.00
36788;BME280;22738;45.560;9.434;2023-08-21T03:24:56;100312.16;;;25.88;100.00
36788;BME280;22738;45.560;9.434;2023-08-21T03:31:37;100316.19;;;25.84;100.00
36788;BME280;22738;45.560;9.434;2023-08-21T03:38:18;100303.94;;;25.83;100.00
36788;BME280;22738;45.560;9.434;2023-08-21T03:44:59;100307.94;;;25.79;100.00
36788;BME280;22738;45.560;9.434;2023-08-21T03:51:40;100305.94;;;25.66;100.00
36788;BME280;22738;45.560;9.434;2023-08-21T03:58:21;100316.19;;;25.55;100.00
36788;BME280;22738;45.560;9.434;2023-08-21T04:05:02;100322.44;;;25.62;100.00
36788;BME280;22738;45.560;9.434;2023-08-21T04:11:43;100328.09;;;25.59;100.00
36788;BME280;22738;45.560;9.434;2023-08-21T04:18:24;100330.47;;;25.54;100.00
36788;BME280;22738;45.560;9.434;2023-08-21T04:25:05;100326.19;;;25.53;100.00
36788;BME280;22738;45.560;9.434;2023-08-21T04:31:48;100319.94;;;25.60;100.00
36788;BME280;22738;45.560;9.434;2023-08-21T04:38:28;100332.97;;;25.55;100.00
36788;BME280;22738;45.560;9.434;2023-08-21T04:45:09;100332.66;;;25.65;100.00
36788;BME280;22738;45.560;9.434;2023-08-21T04:51:52;100330.41;;;25.62;100.00
36788;BME280;22738;45.560;9.434;2023-08-21T04:58:34;100328.19;;;25.65;100.00
36788;BME280;22738;45.560;9.434;2023-08-21T05:05:16;100339.09;;;25.85;100.00
36788;BME280;22738;45.560;9.434;2023-08-21T05:11:57;100353.78;;;26.10;100.00
36788;BME280;22738;45.560;9.434;2023-08-21T05:18:38;100355.69;;;26.16;100.00
36788;BME280;22738;45.560;9.434;2023-08-21T05:25:19;100354.03;;;26.30;100.00
36788;BME280;22738;45.560;9.434;2023-08-21T05:32:01;100362.84;;;26.51;100.00
36788;BME280;22738;45.560;9.434;2023-08-21T05:38:43;100359.91;;;26.75;100.00
36788;BME280;22738;45.560;9.434;2023-08-21T05:45:24;100365.34;;;27.10;100.00
36788;BME280;22738;45.560;9.434;2023-08-21T05:52:05;100365.06;;;27.47;100.00
36788;BME280;22738;45.560;9.434;2023-08-21T05:58:46;100372.22;;;27.74;100.00
36788;BME280;22738;45.560;9.434;2023-08-21T06:05:27;100374.91;;;28.08;100.00
36788;BME280;22738;45.560;9.434;2023-08-21T06:12:10;100384.09;;;28.47;100.00
36788;BME280;22738;45.560;9.434;2023-08-21T06:18:53;100388.84;;;31.48;100.00
36788;BME280;22738;45.560;9.434;2023-08-21T06:25:33;100400.84;;;36.09;100.00
36788;BME280;22738;45.560;9.434;2023-08-21T06:32:14;100404.34;;;38.98;98.75
36788;BME280;22738;45.560;9.434;2023-08-21T06:38:57;100408.66;;;39.85;85.03
36788;BME280;22738;45.560;9.434;2023-08-21T06:45:37;100405.59;;;40.71;76.63
36788;BME280;22738;45.560;9.434;2023-08-21T06:52:19;100411.22;;;42.46;62.44
36788;BME280;22738;45.560;9.434;2023-08-21T06:58:59;100421.00;;;42.05;57.74
36788;BME280;22738;45.560;9.434;2023-08-21T07:05:46;100419.13;;;43.55;55.61
36788;BME280;22738;45.560;9.434;2023-08-21T07:12:30;100414.59;;;43.64;53.87
36788;BME280;22738;45.560;9.434;2023-08-21T07:19:11;100406.53;;;43.86;47.72
36788;BME280;22738;45.560;9.434;2023-08-21T07:25:52;100410.22;;;44.58;45.81
36788;BME280;22738;45.560;9.434;2023-08-21T07:32:32;100409.75;;;44.02;52.59
36788;BME280;22738;45.560;9.434;2023-08-21T07:39:13;100415.44;;;45.04;42.93
36788;BME280;22738;45.560;9.434;2023-08-21T07:45:54;100413.28;;;44.79;41.07
36788;BME280;22738;45.560;9.434;2023-08-21T07:52:35;100410.66;;;43.97;42.48
36788;BME280;22738;45.560;9.434;2023-08-21T07:59:16;100406.06;;;43.52;43.01
36788;BME280;22738;45.560;9.434;2023-08-21T08:05:57;100402.09;;;42.37;42.77
36788;BME280;22738;45.560;9.434;2023-08-21T08:12:41;100396.97;;;41.36;49.81
36788;BME280;22738;45.560;9.434;2023-08-21T08:19:23;100388.41;;;40.26;55.43
36788;BME280;22738;45.560;9.434;2023-08-21T08:26:05;100386.44;;;39.68;53.17
36788;BME280;22738;45.560;9.434;2023-08-21T08:32:49;100388.56;;;39.76;58.62
36788;BME280;22738;45.560;9.434;2023-08-21T08:39:30;100388.63;;;39.61;58.02
36788;BME280;22738;45.560;9.434;2023-08-21T08:46:11;100377.81;;;39.20;60.54
36788;BME280;22738;45.560;9.434;2023-08-21T08:52:52;100373.34;;;38.69;64.04
36788;BME280;22738;45.560;9.434;2023-08-21T08:59:34;100360.38;;;38.71;61.60
36788;BME280;22738;45.560;9.434;2023-08-21T09:06:14;100361.31;;;38.25;61.16
36788;BME280;22738;45.560;9.434;2023-08-21T09:12:55;100351.25;;;38.15;62.37
36788;BME280;22738;45.560;9.434;2023-08-21T09:19:39;100358.72;;;38.65;77.38
36788;BME280;22738;45.560;9.434;2023-08-21T09:26:20;100351.19;;;38.92;60.03
36788;BME280;22738;45.560;9.434;2023-08-21T09:33:01;100344.94;;;38.92;62.64
36788;BME280;22738;45.560;9.434;2023-08-21T09:39:45;100325.38;;;38.70;72.61
36788;BME280;22738;45.560;9.434;2023-08-21T09:46:27;100327.81;;;38.61;65.02
36788;BME280;22738;45.560;9.434;2023-08-21T09:53:09;100312.63;;;38.45;71.28
36788;BME280;22738;45.560;9.434;2023-08-21T09:59:53;100307.19;;;38.45;74.29
36788;BME280;22738;45.560;9.434;2023-08-21T10:06:35;100299.09;;;38.80;67.35
36788;BME280;22738;45.560;9.434;2023-08-21T10:13:18;100292.03;;;38.89;67.16
36788;BME280;22738;45.560;9.434;2023-08-21T10:20:03;100294.25;;;38.77;68.87
36788;BME280;22738;45.560;9.434;2023-08-21T10:26:45;100286.91;;;38.78;67.08
36788;BME280;22738;45.560;9.434;2023-08-21T10:40:25;100268.72;;;38.68;62.62
36788;BME280;22738;45.560;9.434;2023-08-21T10:47:17;100268.44;;;38.44;62.61
36788;BME280;22738;45.560;9.434;2023-08-21T10:54:04;100254.88;;;38.49;74.60
36788;BME280;22738;45.560;9.434;2023-08-21T11:00:57;100259.50;;;38.59;65.36
36788;BME280;22738;45.560;9.434;2023-08-21T11:07:39;100255.41;;;38.67;58.68
36788;BME280;22738;45.560;9.434;2023-08-21T11:14:24;100252.16;;;38.29;63.54
36788;BME280;22738;45.560;9.434;2023-08-21T11:27:46;100243.16;;;38.24;64.29
36788;BME280;22738;45.560;9.434;2023-08-21T11:34:27;100237.69;;;37.99;74.02
36788;BME280;22738;45.560;9.434;2023-08-21T11:41:08;100232.72;;;37.65;66.60
36788;BME280;22738;45.560;9.434;2023-08-21T11:47:49;100228.34;;;37.54;65.79
36788;BME280;22738;45.560;9.434;2023-08-21T11:54:36;100216.41;;;37.55;70.18
36788;BME280;22738;45.560;9.434;2023-08-21T12:01:18;100204.00;;;37.64;73.68
36788;BME280;22738;45.560;9.434;2023-08-21T12:07:59;100212.72;;;37.76;65.62
36788;BME280;22738;45.560;9.434;2023-08-21T12:14:40;100207.53;;;37.13;71.19
36788;BME280;22738;45.560;9.434;2023-08-21T12:21:21;100188.00;;;37.58;66.78
36788;BME280;22738;45.560;9.434;2023-08-21T12:28:02;100183.94;;;37.55;72.79
36788;BME280;22738;45.560;9.434;2023-08-21T12:34:43;100180.72;;;37.58;73.56
36788;BME280;22738;45.560;9.434;2023-08-21T12:41:23;100178.00;;;37.58;75.15
36788;BME280;22738;45.560;9.434;2023-08-21T12:48:04;100170.84;;;37.27;77.13
36788;BME280;22738;45.560;9.434;2023-08-21T12:54:45;100165.44;;;37.27;73.52
36788;BME280;22738;45.560;9.434;2023-08-21T13:01:26;100165.69;;;37.31;82.45
36788;BME280;22738;45.560;9.434;2023-08-21T13:08:07;100162.69;;;37.22;73.18
36788;BME280;22738;45.560;9.434;2023-08-21T13:14:48;100155.13;;;37.24;71.09
36788;BME280;22738;45.560;9.434;2023-08-21T13:21:30;100152.41;;;37.24;70.97
36788;BME280;22738;45.560;9.434;2023-08-21T13:28:11;100148.03;;;37.13;67.36
36788;BME280;22738;45.560;9.434;2023-08-21T13:34:52;100150.19;;;37.06;74.52
36788;BME280;22738;45.560;9.434;2023-08-21T13:41:33;100142.28;;;36.94;72.93
36788;BME280;22738;45.560;9.434;2023-08-21T13:48:13;100127.72;;;37.05;68.98
36788;BME280;22738;45.560;9.434;2023-08-21T13:54:54;100124.22;;;37.05;66.23
36788;BME280;22738;45.560;9.434;2023-08-21T14:01:36;100112.28;;;37.01;69.85
36788;BME280;22738;45.560;9.434;2023-08-21T14:08:17;100106.94;;;37.11;63.65
36788;BME280;22738;45.560;9.434;2023-08-21T14:14:58;100109.41;;;37.23;66.41
36788;BME280;22738;45.560;9.434;2023-08-21T14:21:40;100107.47;;;37.08;67.28
36788;BME280;22738;45.560;9.434;2023-08-21T14:28:21;100101.47;;;37.01;64.13
36788;BME280;22738;45.560;9.434;2023-08-21T14:35:02;100088.59;;;37.23;59.39
36788;BME280;22738;45.560;9.434;2023-08-21T14:41:43;100086.38;;;37.10;62.46
36788;BME280;22738;45.560;9.434;2023-08-21T14:48:24;100081.22;;;37.08;66.66
36788;BME280;22738;45.560;9.434;2023-08-21T14:55:05;100077.97;;;37.06;67.62
36788;BME280;22738;45.560;9.434;2023-08-21T15:01:47;100067.22;;;37.16;61.81
36788;BME280;22738;45.560;9.434;2023-08-21T15:08:28;100066.34;;;37.06;61.66
36788;BME280;22738;45.560;9.434;2023-08-21T15:15:09;100063.38;;;37.02;58.93
36788;BME280;22738;45.560;9.434;2023-08-21T15:21:50;100055.00;;;37.04;66.56
36788;BME280;22738;45.560;9.434;2023-08-21T15:28:31;100053.38;;;37.08;61.49
36788;BME280;22738;45.560;9.434;2023-08-21T15:35:13;100047.38;;;37.01;58.31
36788;BME280;22738;45.560;9.434;2023-08-21T15:41:55;100056.09;;;37.13;57.18
36788;BME280;22738;45.560;9.434;2023-08-21T15:48:35;100054.34;;;36.82;59.26
36788;BME280;22738;45.560;9.434;2023-08-21T15:55:20;100050.25;;;36.79;62.81
36788;BME280;22738;45.560;9.434;2023-08-21T16:02:01;100043.94;;;36.59;63.64
36788;BME280;22738;45.560;9.434;2023-08-21T16:08:42;100034.22;;;36.63;59.91
36788;BME280;22738;45.560;9.434;2023-08-21T16:15:22;100027.47;;;36.55;62.69
36788;BME280;22738;45.560;9.434;2023-08-21T16:22:03;100025.56;;;36.51;63.93
36788;BME280;22738;45.560;9.434;2023-08-21T16:28:44;100033.81;;;36.39;61.38
36788;BME280;22738;45.560;9.434;2023-08-21T16:35:25;100018.88;;;36.26;64.24
36788;BME280;22738;45.560;9.434;2023-08-21T16:42:06;100016.13;;;36.21;69.81
36788;BME280;22738;45.560;9.434;2023-08-21T16:48:47;100014.56;;;36.30;66.96
36788;BME280;22738;45.560;9.434;2023-08-21T16:55:29;100013.84;;;36.03;74.66
36788;BME280;22738;45.560;9.434;2023-08-21T17:02:10;100007.22;;;36.16;69.72
36788;BME280;22738;45.560;9.434;2023-08-21T17:08:50;100010.66;;;35.74;76.11
36788;BME280;22738;45.560;9.434;2023-08-21T17:15:31;100010.31;;;35.66;83.02
36788;BME280;22738;45.560;9.434;2023-08-21T17:22:13;100012.56;;;35.79;78.81
36788;BME280;22738;45.560;9.434;2023-08-21T17:28:54;100007.41;;;35.46;81.23
36788;BME280;22738;45.560;9.434;2023-08-21T17:35:35;100007.91;;;35.16;89.90
36788;BME280;22738;45.560;9.434;2023-08-21T17:42:16;100002.56;;;34.99;90.88
36788;BME280;22738;45.560;9.434;2023-08-21T17:48:57;100013.06;;;34.74;94.58
36788;BME280;22738;45.560;9.434;2023-08-21T17:55:37;100014.34;;;34.50;96.58
36788;BME280;22738;45.560;9.434;2023-08-21T18:02:18;100019.94;;;34.27;100.00
36788;BME280;22738;45.560;9.434;2023-08-21T18:08:59;100023.38;;;34.06;100.00
36788;BME280;22738;45.560;9.434;2023-08-21T18:15:40;100019.53;;;33.85;100.00
36788;BME280;22738;45.560;9.434;2023-08-21T18:22:21;100020.06;;;33.54;100.00
36788;BME280;22738;45.560;9.434;2023-08-21T18:29:02;100021.94;;;33.25;100.00
36788;BME280;22738;45.560;9.434;2023-08-21T18:35:43;100031.38;;;32.88;100.00
36788;BME280;22738;45.560;9.434;2023-08-21T18:42:24;100048.25;;;32.49;100.00
36788;BME280;22738;45.560;9.434;2023-08-21T18:49:05;100045.13;;;31.87;100.00
36788;BME280;22738;45.560;9.434;2023-08-21T18:55:46;100047.88;;;31.69;100.00
36788;BME280;22738;45.560;9.434;2023-08-21T19:02:27;100069.19;;;31.52;100.00
36788;BME280;22738;45.560;9.434;2023-08-21T19:09:08;100059.03;;;31.25;100.00
36788;BME280;22738;45.560;9.434;2023-08-21T19:15:49;100063.22;;;31.02;100.00
36788;BME280;22738;45.560;9.434;2023-08-21T19:22:29;100075.78;;;30.84;100.00
36788;BME280;22738;45.560;9.434;2023-08-21T19:29:10;100075.31;;;30.69;100.00
36788;BME280;22738;45.560;9.434;2023-08-21T19:35:51;100095.13;;;30.43;100.00
36788;BME280;22738;45.560;9.434;2023-08-21T19:42:34;100094.69;;;30.46;100.00
36788;BME280;22738;45.560;9.434;2023-08-21T19:49:16;100091.78;;;30.23;100.00
36788;BME280;22738;45.560;9.434;2023-08-21T19:55:57;100102.00;;;30.01;100.00
36788;BME280;22738;45.560;9.434;2023-08-21T20:02:38;100097.16;;;29.92;100.00
36788;BME280;22738;45.560;9.434;2023-08-21T20:09:19;100106.13;;;29.66;100.00
36788;BME280;22738;45.560;9.434;2023-08-21T20:16:01;100108.22;;;29.64;100.00
36788;BME280;22738;45.560;9.434;2023-08-21T20:22:43;100116.59;;;29.67;100.00
36788;BME280;22738;45.560;9.434;2023-08-21T20:29:24;100124.81;;;29.73;100.00
36788;BME280;22738;45.560;9.434;2023-08-21T20:36:05;100115.75;;;29.74;100.00
36788;BME280;22738;45.560;9.434;2023-08-21T20:42:46;100121.75;;;29.62;100.00
36788;BME280;22738;45.560;9.434;2023-08-21T20:49:26;100124.06;;;29.59;100.00
36788;BME280;22738;45.560;9.434;2023-08-21T20:56:07;100125.31;;;29.56;100.00
36788;BME280;22738;45.560;9.434;2023-08-21T21:02:52;100133.19;;;29.38;100.00
36788;BME280;22738;45.560;9.434;2023-08-21T21:09:32;100133.63;;;29.35;100.00
36788;BME280;22738;45.560;9.434;2023-08-21T21:16:13;100134.63;;;29.41;100.00
36788;BME280;22738;45.560;9.434;2023-08-21T21:22:54;100143.28;;;29.36;100.00
36788;BME280;22738;45.560;9.434;2023-08-21T21:29:35;100137.75;;;29.31;100.00
36788;BME280;22738;45.560;9.434;2023-08-21T21:36:16;100139.84;;;29.23;100.00
36788;BME280;22738;45.560;9.434;2023-08-21T21:42:56;100138.19;;;29.15;100.00
36788;BME280;22738;45.560;9.434;2023-08-21T21:49:37;100142.34;;;28.85;100.00
36788;BME280;22738;45.560;9.434;2023-08-21T21:56:18;100140.31;;;28.87;100.00
36788;BME280;22738;45.560;9.434;2023-08-21T22:02:59;100145.25;;;28.77;100.00
36788;BME280;22738;45.560;9.434;2023-08-21T22:09:40;100146.91;;;28.78;100.00
36788;BME280;22738;45.560;9.434;2023-08-21T22:16:22;100159.22;;;28.59;100.00
36788;BME280;22738;45.560;9.434;2023-08-21T22:23:03;100152.22;;;28.65;100.00
36788;BME280;22738;45.560;9.434;2023-08-21T22:29:54;100162.50;;;28.42;100.00
36788;BME280;22738;45.560;9.434;2023-08-21T22:36:36;100160.84;;;28.47;100.00
36788;BME280;22738;45.560;9.434;2023-08-21T22:43:22;100165.34;;;28.34;100.00
36788;BME280;22738;45.560;9.434;2023-08-21T22:50:09;100164.13;;;28.43;100.00
36788;BME280;22738;45.560;9.434;2023-08-21T22:56:50;100153.44;;;28.43;100.00
36788;BME280;22738;45.560;9.434;2023-08-21T23:03:31;100147.69;;;28.26;100.00
36788;BME280;22738;45.560;9.434;2023-08-21T23:10:12;100146.06;;;28.18;100.00
36788;BME280;22738;45.560;9.434;2023-08-21T23:16:52;100139.91;;;28.11;100.00
36788;BME280;22738;45.560;9.434;2023-08-21T23:23:33;100150.94;;;28.02;100.00
36788;BME280;22738;45.560;9.434;2023-08-21T23:30:15;100143.56;;;28.10;100.00
36788;BME280;22738;45.560;9.434;2023-08-21T23:36:56;100140.66;;;27.92;100.00
36788;BME280;22738;45.560;9.434;2023-08-21T23:43:36;100148.44;;;27.87;100.00
36788;BME280;22738;45.560;9.434;2023-08-21T23:50:18;100153.31;;;27.77;100.00
36788;BME280;22738;45.560;9.434;2023-08-21T23:56:59;100152.47;;;27.64;100.00
